Time;durP1;ratioP1;P1;durP2;ratioP2;P2;SDS_P1;SDS_P2;PMS_P1;PMS_P2;Temp;Humidity;BMP_temperature;BMP_pressure;BME280_temperature;BME280_humidity;BME280_pressure;Samples;Min_cycle;Max_cycle;Signal;HPM_P1;HPM_P2
2022/04/18 00:00:41;;;;;;;5.43;2.90;;;12.20;56.00;;;;;;4973269;28;20038;-79
2022/04/18 00:03:07;;;;;;;5.37;2.60;;;12.20;55.70;;;;;;4973094;28;20034;-79
2022/04/18 00:05:33;;;;;;;5.17;2.73;;;12.20;56.70;;;;;;4973230;28;20595;-79
2022/04/18 00:08:03;;;;;;;6.27;2.40;;;12.20;56.00;;;;;;4973221;28;20030;-79
2022/04/18 00:10:29;;;;;;;5.00;2.40;;;12.20;56.40;;;;;;4973118;28;20053;-79
2022/04/18 00:12:55;;;;;;;5.83;2.50;;;12.20;55.40;;;;;;4971788;28;20038;-79
2022/04/18 00:15:21;;;;;;;3.70;2.20;;;12.30;55.50;;;;;;4971796;28;20178;-79
2022/04/18 00:17:47;;;;;;;5.03;2.37;;;12.30;55.80;;;;;;4972592;28;20027;-79
2022/04/18 00:20:13;;;;;;;5.50;2.47;;;12.20;55.50;;;;;;4972904;28;20031;-79
2022/04/18 00:22:38;;;;;;;4.97;2.10;;;12.30;55.20;;;;;;4973046;28;20073;-79
2022/04/18 00:25:05;;;;;;;4.60;2.63;;;12.20;55.10;;;;;;4971566;28;20035;-79
2022/04/18 00:27:30;;;;;;;4.77;2.50;;;12.20;55.50;;;;;;4972703;28;20030;-80
2022/04/18 00:29:56;;;;;;;5.23;2.43;;;12.20;55.60;;;;;;4972892;28;20022;-79
2022/04/18 00:32:22;;;;;;;5.47;2.50;;;12.20;55.60;;;;;;4972545;28;20031;-80
2022/04/18 00:34:47;;;;;;;3.77;2.10;;;12.20;56.30;;;;;;4972565;28;20034;-79
2022/04/18 00:37:13;;;;;;;4.50;1.97;;;12.20;55.70;;;;;;4972604;28;20134;-79
2022/04/18 00:39:39;;;;;;;5.87;2.53;;;12.10;55.80;;;;;;4972655;28;20023;-79
2022/04/18 00:42:05;;;;;;;4.53;2.30;;;12.10;55.90;;;;;;4972446;28;20356;-79
2022/04/18 00:44:30;;;;;;;4.43;2.30;;;12.10;56.30;;;;;;4972467;28;20066;-79
2022/04/18 00:46:56;;;;;;;4.73;2.20;;;12.10;55.90;;;;;;4972310;28;20114;-79
2022/04/18 00:49:22;;;;;;;5.27;2.03;;;12.00;55.70;;;;;;4972370;28;20073;-79
2022/04/18 00:51:48;;;;;;;3.53;1.93;;;12.00;55.60;;;;;;4972257;28;20023;-79
2022/04/18 00:54:14;;;;;;;4.33;2.30;;;12.00;55.80;;;;;;4972495;28;20376;-79
2022/04/18 00:56:40;;;;;;;3.33;1.87;;;12.00;55.70;;;;;;4972165;28;20109;-79
2022/04/18 00:59:07;;;;;;;5.90;2.40;;;11.90;55.80;;;;;;4970979;28;20035;-79
2022/04/18 01:01:32;;;;;;;6.33;2.20;;;11.90;56.20;;;;;;4972063;28;20158;-79
2022/04/18 01:03:59;;;;;;;3.63;2.00;;;11.90;56.10;;;;;;4970902;28;20038;-79
2022/04/18 01:06:25;;;;;;;3.90;2.00;;;11.90;56.00;;;;;;4972215;28;20031;-80
2022/04/18 01:08:52;;;;;;;4.87;1.93;;;11.90;56.40;;;;;;4970853;28;20085;-79
2022/04/18 01:11:18;;;;;;;3.93;1.90;;;11.80;56.40;;;;;;4970889;28;20027;-79
2022/04/18 01:14:06;;;;;;;4.27;1.73;;;11.90;56.30;;;;;;4970969;28;20041;-80
2022/04/18 01:16:44;;;;;;;5.20;1.90;;;11.90;57.00;;;;;;4972298;28;20041;-79
2022/04/18 01:19:30;;;;;;;3.90;1.93;;;11.90;56.60;;;;;;4971788;28;20039;-80
2022/04/18 01:22:11;;;;;;;4.87;2.30;;;11.80;56.20;;;;;;4970611;28;20205;-79
2022/04/18 01:30:33;;;;;;;5.33;2.00;;;11.80;56.60;;;;;;4971377;28;20516;-79
2022/04/18 01:32:59;;;;;;;3.67;1.90;;;11.80;57.00;;;;;;4971776;28;20049;-79
2022/04/18 01:35:25;;;;;;;3.80;1.77;;;11.80;56.90;;;;;;4970676;28;20031;-79
2022/04/18 01:37:51;;;;;;;3.67;1.90;;;11.70;56.70;;;;;;4971849;28;20018;-80
2022/04/18 01:40:17;;;;;;;3.80;1.80;;;11.70;56.40;;;;;;4970613;28;20065;-79
2022/04/18 01:42:44;;;;;;;3.50;1.93;;;11.70;56.30;;;;;;4970515;28;20027;-79
2022/04/18 01:45:12;;;;;;;5.18;2.10;;;11.70;56.30;;;;;;4970516;28;20035;-79
2022/04/18 01:47:40;;;;;;;3.03;1.50;;;11.80;56.50;;;;;;4970275;28;20070;-79
2022/04/18 01:50:06;;;;;;;4.17;2.10;;;11.70;56.20;;;;;;4971791;28;20058;-80
2022/04/18 01:52:32;;;;;;;3.57;1.83;;;11.70;56.40;;;;;;4954551;28;20031;-79
2022/04/18 01:54:57;;;;;;;3.47;1.70;;;11.80;56.70;;;;;;4970437;28;20034;-79
2022/04/18 01:57:23;;;;;;;3.70;1.80;;;11.70;56.40;;;;;;4971635;28;20113;-79
2022/04/18 01:59:49;;;;;;;5.60;1.93;;;11.80;56.70;;;;;;4970416;28;20031;-79
2022/04/18 02:02:16;;;;;;;4.17;1.90;;;11.80;56.90;;;;;;4970178;28;20034;-79
2022/04/18 02:04:42;;;;;;;5.27;1.70;;;11.80;56.90;;;;;;4970587;28;20034;-79
2022/04/18 02:07:11;;;;;;;3.33;1.77;;;11.80;56.90;;;;;;4970437;28;20031;-79
2022/04/18 02:09:39;;;;;;;4.88;2.20;;;11.80;57.10;;;;;;4970436;28;20031;-79
2022/04/18 02:12:07;;;;;;;2.93;1.80;;;11.90;57.20;;;;;;4970125;28;20041;-79
2022/04/18 02:14:43;;;;;;;6.73;1.97;;;11.90;57.50;;;;;;4970265;28;20035;-79
2022/04/18 02:17:09;;;;;;;3.33;1.90;;;11.80;57.60;;;;;;4970205;28;20060;-79
2022/04/18 02:19:34;;;;;;;3.67;2.20;;;11.60;57.90;;;;;;4971655;28;20700;-79
2022/04/18 02:22:00;;;;;;;2.80;1.70;;;11.60;57.90;;;;;;4971369;28;20035;-79
2022/04/18 02:24:26;;;;;;;4.20;1.80;;;11.50;58.00;;;;;;4970313;28;20049;-79
2022/04/18 02:26:52;;;;;;;3.87;1.87;;;11.40;58.20;;;;;;4970052;28;20034;-79
2022/04/18 02:29:18;;;;;;;2.67;1.80;;;11.40;58.30;;;;;;4970129;28;20061;-79
2022/04/18 02:34:28;;;;;;;4.70;2.63;;;11.20;58.90;;;;;;4989631;28;20060;-80
2022/04/18 02:36:56;;;;;;;4.57;2.27;;;11.10;59.30;;;;;;4989339;28;20035;-81
2022/04/18 02:39:26;;;;;;;4.40;2.40;;;11.00;59.70;;;;;;4989470;28;20026;-81
2022/04/18 02:41:52;;;;;;;4.67;2.57;;;10.90;59.90;;;;;;4992318;28;20084;-80
2022/04/18 02:44:18;;;;;;;5.53;2.27;;;11.00;60.00;;;;;;4992863;28;20034;-80
2022/04/18 02:46:44;;;;;;;5.57;2.87;;;10.90;60.20;;;;;;4992844;28;20077;-81
2022/04/18 02:49:09;;;;;;;5.63;2.93;;;10.90;60.30;;;;;;4992841;28;20427;-80
2022/04/18 02:51:35;;;;;;;5.73;2.70;;;10.80;60.10;;;;;;4976411;28;20077;-81
2022/04/18 02:54:06;;;;;;;5.00;2.40;;;10.80;60.10;;;;;;4992820;28;20041;-81
2022/04/18 02:56:35;;;;;;;6.47;2.30;;;10.80;60.30;;;;;;4992689;28;20113;-81
2022/04/18 02:59:01;;;;;;;4.03;2.17;;;10.80;60.40;;;;;;4992601;28;20117;-81
2022/04/18 03:01:27;;;;;;;5.77;2.23;;;10.80;60.20;;;;;;4992514;28;20109;-81
2022/04/18 03:03:55;;;;;;;3.83;1.90;;;10.80;60.20;;;;;;4992594;28;20034;-81
2022/04/18 03:06:22;;;;;;;3.67;2.17;;;10.80;60.30;;;;;;4992456;28;20277;-81
2022/04/18 03:08:48;;;;;;;4.57;2.17;;;10.80;60.30;;;;;;4992369;28;20026;-81
2022/04/18 03:11:13;;;;;;;4.20;2.23;;;10.80;60.30;;;;;;4993745;28;20634;-81
2022/04/18 03:13:47;;;;;;;3.50;1.97;;;10.70;60.40;;;;;;4993589;28;20085;-81
2022/04/18 03:16:30;;;;;;;4.13;2.00;;;10.70;60.50;;;;;;4992305;28;20045;-81
2022/04/18 03:18:56;;;;;;;4.63;2.20;;;10.60;60.50;;;;;;4992315;28;20031;-80
2022/04/18 03:21:23;;;;;;;4.37;2.20;;;10.70;60.80;;;;;;4976111;28;20121;-81
2022/04/18 03:23:52;;;;;;;4.32;1.70;;;10.70;61.40;;;;;;4992333;28;20030;-81
2022/04/18 03:26:36;;;;;;;3.90;2.10;;;10.80;61.60;;;;;;4993424;28;20118;-81
2022/04/18 03:29:17;;;;;;;4.50;2.13;;;10.70;61.00;;;;;;4992220;28;20084;-81
2022/04/18 03:31:44;;;;;;;5.13;2.20;;;10.70;61.00;;;;;;4991816;28;20034;-81
2022/04/18 03:34:11;;;;;;;3.77;1.90;;;10.70;61.20;;;;;;4992116;28;20077;-80
2022/04/18 03:40:07;;;;;;;5.17;2.30;;;10.70;62.30;;;;;;4992099;28;20034;-81
2022/04/18 03:42:11;;;;;;;3.93;2.00;;;10.70;63.20;;;;;;4988153;28;20034;-81
2022/04/18 03:44:43;;;;;;;4.25;1.80;;;10.60;62.60;;;;;;4991927;28;20030;-81
2022/04/18 03:47:13;;;;;;;3.60;1.90;;;10.50;62.70;;;;;;4991935;28;20030;-81
2022/04/18 03:49:40;;;;;;;4.57;2.13;;;10.50;62.90;;;;;;4992120;28;20664;-81
2022/04/18 03:52:07;;;;;;;3.63;1.70;;;10.50;63.10;;;;;;4991271;28;20085;-80
2022/04/18 03:54:39;;;;;;;4.17;2.33;;;10.40;63.00;;;;;;4991875;28;20031;-81
2022/04/18 03:57:06;;;;;;;4.00;1.90;;;10.40;63.40;;;;;;4991807;28;20080;-80
2022/04/18 03:59:42;;;;;;;3.73;2.00;;;10.40;63.40;;;;;;4991951;28;20053;-80
2022/04/18 04:02:09;;;;;;;4.77;2.53;;;10.30;63.60;;;;;;4991771;28;20530;-80
2022/04/18 04:04:41;;;;;;;4.70;2.00;;;10.20;63.70;;;;;;4976135;28;20026;-80
2022/04/18 04:07:07;;;;;;;6.13;3.40;;;10.20;64.20;;;;;;4991643;28;20487;-80
2022/04/18 04:09:34;;;;;;;5.20;2.43;;;10.10;64.50;;;;;;4991677;28;20035;-80
2022/04/18 04:12:00;;;;;;;4.07;2.10;;;10.10;64.50;;;;;;4991474;28;20438;-81
2022/04/18 04:14:32;;;;;;;3.63;2.17;;;10.00;64.60;;;;;;4991557;28;20026;-81
2022/04/18 04:16:58;;;;;;;3.77;2.10;;;9.90;64.90;;;;;;4991498;28;20399;-81
2022/04/18 04:19:24;;;;;;;3.60;2.13;;;9.90;65.10;;;;;;4975245;28;20053;-81
2022/04/18 04:21:51;;;;;;;3.73;2.10;;;9.90;65.30;;;;;;4991275;28;20136;-81
2022/04/18 04:24:17;;;;;;;6.90;2.23;;;9.90;65.60;;;;;;4991336;28;20459;-81
2022/04/18 04:26:44;;;;;;;4.03;2.27;;;9.90;66.10;;;;;;4992400;28;20030;-81
2022/04/18 04:29:12;;;;;;;5.03;2.00;;;9.90;66.40;;;;;;4992724;28;20029;-81
2022/04/18 04:31:59;;;;;;;6.10;2.10;;;9.80;66.40;;;;;;4991983;28;20045;-81
2022/04/18 04:34:28;;;;;;;3.17;2.05;;;9.70;66.50;;;;;;4991275;28;20045;-81
2022/04/18 04:37:12;;;;;;;3.60;1.77;;;9.70;66.80;;;;;;4991496;28;20041;-81
2022/04/18 04:39:41;;;;;;;3.70;1.85;;;9.70;67.10;;;;;;4991202;28;20038;-81
2022/04/18 04:42:08;;;;;;;3.90;1.90;;;9.70;67.60;;;;;;4990929;28;20034;-80
2022/04/18 04:44:34;;;;;;;5.83;2.23;;;9.60;68.40;;;;;;4991007;28;20035;-80
2022/04/18 04:47:04;;;;;;;5.10;2.37;;;9.70;68.80;;;;;;4990996;28;20112;-80
2022/04/18 04:49:31;;;;;;;4.63;2.08;;;9.60;68.00;;;;;;4974930;28;20352;-80
2022/04/18 04:52:11;;;;;;;4.90;2.13;;;9.60;68.50;;;;;;4990927;28;20030;-80
2022/04/18 04:54:39;;;;;;;3.77;2.20;;;9.60;68.90;;;;;;4990883;28;20035;-81
2022/04/18 04:57:07;;;;;;;5.13;2.20;;;9.60;68.80;;;;;;4990752;28;20026;-81
2022/04/18 04:59:51;;;;;;;4.37;2.07;;;9.50;68.70;;;;;;4992130;28;20509;-81
2022/04/18 05:02:18;;;;;;;4.03;2.20;;;9.50;68.80;;;;;;4990706;28;20163;-80
2022/04/18 05:04:44;;;;;;;3.57;2.07;;;9.50;69.30;;;;;;4989871;28;20026;-80
2022/04/18 05:07:11;;;;;;;3.40;1.90;;;9.40;69.30;;;;;;4990520;28;20023;-80
2022/04/18 05:09:55;;;;;;;4.13;2.33;;;9.50;69.40;;;;;;4992037;28;20041;-80
2022/04/18 05:12:21;;;;;;;4.33;2.40;;;9.40;69.80;;;;;;4990575;28;20026;-80
2022/04/18 05:14:47;;;;;;;5.37;2.07;;;9.50;70.10;;;;;;4990550;28;20471;-80
2022/04/18 05:17:25;;;;;;;4.07;2.20;;;9.50;70.10;;;;;;4990444;28;20034;-80
2022/04/18 05:20:02;;;;;;;6.37;2.30;;;9.50;70.80;;;;;;4990608;28;20042;-80
2022/04/18 05:22:29;;;;;;;3.73;2.13;;;9.40;70.70;;;;;;4990425;28;20510;-81
2022/04/18 05:24:56;;;;;;;4.90;2.53;;;9.50;70.90;;;;;;4990747;28;20690;-81
2022/04/18 05:27:43;;;;;;;4.40;2.30;;;9.50;71.50;;;;;;4990457;28;20081;-81
2022/04/18 05:30:27;;;;;;;6.23;2.53;;;9.50;72.00;;;;;;4976692;28;20081;-80
2022/04/18 05:32:55;;;;;;;4.73;2.20;;;9.50;72.50;;;;;;4990500;28;20061;-81
2022/04/18 05:35:21;;;;;;;4.13;2.30;;;9.50;72.90;;;;;;4990558;28;20402;-81
2022/04/18 05:37:48;;;;;;;5.53;2.30;;;9.50;73.20;;;;;;4990218;28;20030;-81
2022/04/18 05:40:25;;;;;;;4.83;2.10;;;9.50;73.60;;;;;;4975650;28;20030;-82
2022/04/18 05:42:54;;;;;;;4.47;2.20;;;9.50;73.90;;;;;;4990065;28;20121;-81
2022/04/18 05:45:25;;;;;;;6.70;2.20;;;9.50;73.80;;;;;;4995426;28;20033;-92
2022/04/18 05:48:14;;;;;;;4.67;2.20;;;9.70;73.60;;;;;;4997864;28;20546;-84
2022/04/18 05:50:47;;;;;;;5.20;2.50;;;9.70;73.60;;;;;;4990364;28;20027;-83
2022/04/18 05:53:25;;;;;;;6.57;2.20;;;9.80;73.70;;;;;;4990160;28;20066;-82
2022/04/18 05:56:04;;;;;;;4.23;2.20;;;9.80;73.60;;;;;;4991577;28;20499;-82
2022/04/18 05:58:46;;;;;;;5.07;2.23;;;9.90;73.20;;;;;;4990082;28;20518;-82
2022/04/18 06:01:30;;;;;;;6.80;2.60;;;10.00;73.00;;;;;;4991483;28;20431;-82
2022/04/18 06:03:59;;;;;;;4.30;2.00;;;10.00;71.80;;;;;;4990203;28;20034;-82
2022/04/18 06:06:25;;;;;;;3.77;2.17;;;10.10;69.80;;;;;;4990086;28;20384;-81
2022/04/18 06:08:52;;;;;;;4.80;2.17;;;10.20;69.30;;;;;;5006623;28;20412;-82
2022/04/18 06:11:23;;;;;;;3.63;2.10;;;10.30;68.10;;;;;;4990097;28;20118;-81
2022/04/18 06:13:56;;;;;;;4.70;2.03;;;10.30;68.30;;;;;;4991532;28;20157;-80
2022/04/18 06:16:23;;;;;;;4.83;1.60;;;10.40;68.50;;;;;;4993127;28;20058;-82
2022/04/18 06:18:49;;;;;;;3.70;1.80;;;10.50;67.80;;;;;;4977596;28;20039;-82
2022/04/18 06:21:15;;;;;;;3.90;2.27;;;10.50;67.90;;;;;;4993817;28;20042;-82
2022/04/18 06:23:43;;;;;;;3.60;2.10;;;10.60;67.60;;;;;;4993573;28;20643;-82
2022/04/18 06:26:29;;;;;;;2.90;1.80;;;10.70;67.80;;;;;;4994091;28;20034;-82
2022/04/18 06:28:59;;;;;;;3.67;1.73;;;10.80;67.00;;;;;;4993518;28;20037;-82
2022/04/18 06:31:26;;;;;;;5.97;1.80;;;10.90;67.20;;;;;;5009656;28;20041;-82
2022/04/18 06:34:00;;;;;;;3.70;1.60;;;11.00;66.90;;;;;;4993475;28;20057;-82
2022/04/18 06:36:27;;;;;;;4.03;1.93;;;11.00;66.80;;;;;;4994462;28;20037;-83
2022/04/18 06:39:13;;;;;;;4.07;1.80;;;11.10;66.70;;;;;;4994168;28;20031;-82
2022/04/18 06:41:39;;;;;;;4.17;1.77;;;11.20;69.50;;;;;;4993251;28;20062;-82
2022/04/18 06:44:06;;;;;;;4.67;1.80;;;11.40;75.50;;;;;;4993135;28;20030;-82
2022/04/18 06:46:43;;;;;;;3.50;1.80;;;11.80;73.00;;;;;;4993060;28;20037;-83
2022/04/18 06:49:14;;;;;;;3.40;1.47;;;12.30;69.50;;;;;;4992926;28;20144;-83
2022/04/18 06:52:23;;;;;;;3.77;1.90;;;12.90;66.50;;;;;;5004336;28;20077;-89
2022/04/18 06:58:31;;;;;;;;;;;;;;;;;;;;;
2022/04/18 07:01:21;;;;;;;3.73;1.97;;;12.70;61.80;;;;;;4994172;28;20036;-88
2022/04/18 07:04:04;;;;;;;2.83;1.40;;;12.60;62.10;;;;;;4992679;28;20026;-88
2022/04/18 07:07:15;;;;;;;;;;;;;;;;;;;;;
2022/04/18 07:09:57;;;;;;;4.00;2.20;;;12.40;62.90;;;;;;4992669;28;20130;-88
2022/04/18 07:13:24;;;;;;;;;;;;;;;;;;;;;
2022/04/18 07:16:32;;;;;;;;;;;;;;;;;;;;;
2022/04/18 07:19:09;;;;;;;3.50;1.83;;;12.40;62.10;;;;;;4994512;28;20034;-88
2022/04/18 07:31:58;;;;;;;5.13;2.10;;;12.60;61.70;;;;;;4922152;23;20058;-72
2022/04/18 07:34:25;;;;;;;3.33;1.67;;;12.60;61.60;;;;;;4974114;28;20088;-73
2022/04/18 07:36:52;;;;;;;3.10;1.70;;;12.60;61.00;;;;;;4972637;28;20491;-72
2022/04/18 07:39:18;;;;;;;3.43;1.60;;;12.60;61.00;;;;;;4972801;28;20031;-71
2022/04/18 07:41:50;;;;;;;2.40;1.40;;;12.70;61.40;;;;;;4972590;28;20085;-72
2022/04/18 07:44:20;;;;;;;3.60;1.80;;;12.70;61.40;;;;;;4972736;28;20039;-72
2022/04/18 07:46:47;;;;;;;3.17;1.60;;;12.70;61.20;;;;;;4956648;28;20027;-73
2022/04/18 07:49:22;;;;;;;3.70;1.90;;;12.70;61.10;;;;;;4972772;28;20031;-72
2022/04/18 07:51:49;;;;;;;4.53;1.77;;;12.80;61.10;;;;;;4972345;28;20027;-71
2022/04/18 07:54:28;;;;;;;3.50;1.60;;;12.80;61.10;;;;;;4972458;28;20109;-73
2022/04/18 07:56:54;;;;;;;4.30;1.73;;;12.90;61.10;;;;;;4956121;28;20035;-73
2022/04/18 07:59:28;;;;;;;4.03;1.90;;;12.90;61.10;;;;;;4971874;28;20130;-71
2022/04/18 08:01:54;;;;;;;5.23;2.00;;;12.90;61.20;;;;;;4972048;28;20515;-72
2022/04/18 08:04:40;;;;;;;3.50;1.70;;;13.00;61.40;;;;;;4972532;28;20129;-71
2022/04/18 08:07:10;;;;;;;4.23;1.83;;;13.00;60.20;;;;;;4972008;28;20109;-72
2022/04/18 08:09:36;;;;;;;3.07;1.50;;;13.00;60.60;;;;;;4972080;28;20079;-72
2022/04/18 08:12:03;;;;;;;3.13;1.53;;;13.00;60.80;;;;;;4973165;28;20055;-72
2022/04/18 08:14:49;;;;;;;3.80;1.87;;;13.10;60.10;;;;;;4973165;28;20035;-72
2022/04/18 08:17:16;;;;;;;3.90;1.80;;;13.10;60.10;;;;;;4972097;28;20173;-71
2022/04/18 08:19:45;;;;;;;2.95;1.50;;;13.10;60.40;;;;;;4972000;28;20030;-72
2022/04/18 08:22:12;;;;;;;3.27;1.60;;;13.20;60.40;;;;;;4972036;28;20043;-71
2022/04/18 08:24:58;;;;;;;2.83;1.43;;;13.20;60.70;;;;;;4973374;28;20377;-72
2022/04/18 08:27:53;;;;;;;2.27;1.40;;;13.10;60.60;;;;;;4953338;28;20039;-72
2022/04/18 08:30:30;;;;;;;3.23;1.73;;;13.20;60.70;;;;;;4971718;28;20061;-71
2022/04/18 08:33:34;;;;;;;;;;;;;;;;;;;;;
2022/04/18 08:36:38;;;;;;;;;;;;;;;;;;;;;
2022/04/18 08:39:35;;;;;;;6.43;2.30;;;13.30;60.30;;;;;;4992577;28;20390;-88
2022/04/18 08:42:10;;;;;;;4.07;1.98;;;13.40;60.00;;;;;;4991887;28;20030;-89
2022/04/18 08:45:53;;;;;;;;;;;;;;;;;;;;;
2022/04/18 08:59:26;;;;;;;;;;;;;;;;;;;;;
2022/04/18 09:03:06;;;;;;;;;;;;;;;;;;;;;
2022/04/18 09:10:34;;;;;;;;;;;;;;;;;;;;;
2022/04/18 09:13:27;;;;;;;;;;;;;;;;;;;;;
2022/04/18 09:16:21;;;;;;;6.33;2.30;;;13.90;58.20;;;;;;4992198;28;20030;-87
2022/04/18 09:19:09;;;;;;;5.47;3.23;;;14.00;57.70;;;;;;4990498;28;20046;-87
2022/04/18 09:22:00;;;;;;;5.65;2.92;;;14.00;57.30;;;;;;4990195;28;20026;-87
2022/04/18 09:24:46;;;;;;;6.00;2.72;;;14.10;57.40;;;;;;4990271;28;20482;-88
2022/04/18 09:27:34;;;;;;;5.07;2.70;;;14.10;57.30;;;;;;4990598;28;20027;-89
2022/04/18 09:31:13;;;;;;;4.63;1.83;;;14.20;56.90;;;;;;4992460;28;20034;-89
2022/04/18 09:33:59;;;;;;;14.97;4.00;;;14.20;55.90;;;;;;4989152;28;20374;-89
2022/04/18 09:37:00;;;;;;;3.17;1.90;;;14.40;55.20;;;;;;4991674;28;20034;-90
2022/04/18 09:44:14;;;;;;;7.65;3.40;;;14.40;54.40;;;;;;4993558;28;20133;-92
2022/04/18 09:46:49;;;;;;;7.22;3.85;;;14.40;54.50;;;;;;4990018;28;20576;-87
2022/04/18 09:49:36;;;;;;;5.40;2.83;;;14.40;53.80;;;;;;4990140;28;20053;-86
2022/04/18 09:52:04;;;;;;;5.88;2.55;;;14.40;53.90;;;;;;4993718;28;20510;-87
2022/04/18 09:54:31;;;;;;;8.30;4.82;;;14.50;54.00;;;;;;4994991;28;20030;-86
2022/04/18 09:57:06;;;;;;;3.90;2.30;;;14.40;54.30;;;;;;4977559;28;20112;-86
2022/04/18 09:59:32;;;;;;;4.20;2.20;;;14.50;54.90;;;;;;4995111;28;20035;-87
2022/04/18 10:01:59;;;;;;;5.03;2.42;;;14.50;54.80;;;;;;4993687;28;20030;-86
2022/04/18 10:04:25;;;;;;;6.22;3.40;;;14.60;54.80;;;;;;4993688;28;20031;-87
2022/04/18 10:06:53;;;;;;;7.13;2.88;;;14.60;54.70;;;;;;4999834;28;20080;-86
2022/04/18 10:09:24;;;;;;;5.75;3.05;;;14.70;54.40;;;;;;5014730;28;20045;-87
2022/04/18 10:11:51;;;;;;;4.82;1.90;;;14.70;54.80;;;;;;5018480;28;20030;-86
2022/04/18 10:14:17;;;;;;;4.10;2.40;;;14.80;54.60;;;;;;5018202;28;20393;-86
2022/04/18 10:16:44;;;;;;;3.08;1.70;;;14.80;54.40;;;;;;5018503;28;20394;-86
2022/04/18 10:19:26;;;;;;;3.00;1.73;;;14.80;54.50;;;;;;5000084;28;20030;-84
2022/04/18 10:22:22;;;;;;;4.15;2.05;;;14.80;53.90;;;;;;5015018;28;20105;-85
2022/04/18 10:25:05;;;;;;;6.03;2.80;;;14.80;54.20;;;;;;4977527;28;20045;-85
2022/04/18 10:27:49;;;;;;;6.30;3.10;;;14.90;53.60;;;;;;5017738;28;20026;-85
2022/04/18 10:30:15;;;;;;;5.78;2.65;;;14.90;54.00;;;;;;5016189;28;20038;-85
2022/04/18 10:32:42;;;;;;;7.15;2.90;;;14.90;54.00;;;;;;5015112;28;20034;-85
2022/04/18 10:35:11;;;;;;;3.33;1.60;;;15.00;53.40;;;;;;5015554;28;20030;-83
2022/04/18 10:37:41;;;;;;;4.32;1.90;;;15.10;52.30;;;;;;5016678;28;20049;-83
2022/04/18 10:40:07;;;;;;;5.30;2.70;;;15.10;52.60;;;;;;5015736;28;20391;-86
2022/04/18 10:42:35;;;;;;;4.45;2.63;;;15.20;52.70;;;;;;5015653;28;20045;-86
2022/04/18 10:45:19;;;;;;;3.85;2.20;;;15.20;51.90;;;;;;5016205;28;20554;-85
2022/04/18 10:47:58;;;;;;;3.95;2.05;;;15.30;52.40;;;;;;5015929;28;20053;-85
2022/04/18 10:50:29;;;;;;;4.32;1.90;;;15.30;52.90;;;;;;5016501;28;20030;-87
2022/04/18 10:53:17;;;;;;;3.13;1.65;;;15.40;52.00;;;;;;5005107;28;20427;-80
2022/04/18 10:55:51;;;;;;;2.80;1.60;;;15.40;51.50;;;;;;5001841;28;20477;-82
2022/04/18 10:58:25;;;;;;;3.33;1.70;;;15.40;51.50;;;;;;5002097;28;20106;-83
2022/04/18 11:00:53;;;;;;;2.65;1.63;;;15.40;51.60;;;;;;4997860;28;20065;-87
2022/04/18 11:03:54;;;;;;;2.72;1.50;;;15.40;51.50;;;;;;4997489;28;20048;-87
2022/04/18 11:06:32;;;;;;;3.25;1.58;;;15.40;52.00;;;;;;4999890;28;20062;-87
2022/04/18 11:09:06;;;;;;;3.23;1.43;;;15.40;51.40;;;;;;4995880;28;20090;-86
2022/04/18 11:12:06;;;;;;;2.70;1.23;;;15.40;51.80;;;;;;4996813;28;20507;-84
2022/04/18 11:14:41;;;;;;;2.72;1.50;;;15.40;52.00;;;;;;4993957;28;20108;-81
2022/04/18 11:17:10;;;;;;;2.63;1.27;;;15.50;52.00;;;;;;4993473;28;20478;-82
2022/04/18 11:19:40;;;;;;;3.60;1.70;;;15.40;52.00;;;;;;4994254;28;20394;-83
2022/04/18 11:22:23;;;;;;;4.00;1.55;;;15.50;51.00;;;;;;4995746;28;20109;-89
2022/04/18 11:24:49;;;;;;;6.25;1.60;;;15.60;51.80;;;;;;4993589;28;20042;-84
2022/04/18 11:27:22;;;;;;;3.17;1.63;;;15.70;52.80;;;;;;4995236;28;20394;-83
2022/04/18 11:29:55;;;;;;;3.15;1.80;;;15.80;52.80;;;;;;4995377;28;20122;-83
2022/04/18 11:32:24;;;;;;;4.65;2.50;;;15.80;52.50;;;;;;4993232;28;20066;-83
2022/04/18 11:34:52;;;;;;;4.57;2.03;;;15.90;52.70;;;;;;4993480;28;20534;-83
2022/04/18 11:37:24;;;;;;;3.40;1.92;;;15.90;53.00;;;;;;4993834;28;20030;-83
2022/04/18 11:39:52;;;;;;;2.38;1.50;;;15.90;52.40;;;;;;4993906;28;20118;-83
2022/04/18 11:42:27;;;;;;;3.95;2.25;;;16.00;51.90;;;;;;4993075;28;20040;-78
2022/04/18 11:44:55;;;;;;;3.47;1.95;;;16.00;52.00;;;;;;4993239;28;20026;-83
2022/04/18 11:47:23;;;;;;;4.95;2.10;;;16.00;51.40;;;;;;4993089;28;20056;-82
2022/04/18 11:49:58;;;;;;;4.55;2.08;;;16.00;51.60;;;;;;4993202;28;20073;-82
2022/04/18 11:52:33;;;;;;;5.55;2.05;;;16.00;51.60;;;;;;4992956;28;20022;-82
2022/04/18 11:55:00;;;;;;;3.88;1.48;;;16.00;52.30;;;;;;4992996;28;20042;-83
2022/04/18 11:57:29;;;;;;;4.45;2.05;;;16.20;52.20;;;;;;4992959;28;20106;-83
2022/04/18 11:59:55;;;;;;;4.20;2.00;;;16.20;52.10;;;;;;4991747;28;20054;-82
2022/04/18 12:08:05;;;;;;;3.03;1.80;;;16.20;51.80;;;;;;4993135;28;20108;-83
2022/04/18 12:10:35;;;;;;;4.78;2.00;;;16.20;51.20;;;;;;4993593;28;20033;-87
2022/04/18 12:16:59;;;;;;;3.53;1.80;;;16.20;51.90;;;;;;4995111;28;20045;-88
2022/04/18 12:19:28;;;;;;;3.45;1.70;;;16.10;52.50;;;;;;4994913;28;20026;-88
2022/04/18 12:21:56;;;;;;;4.00;2.38;;;16.10;52.10;;;;;;4994170;28;20022;-83
2022/04/18 12:24:48;;;;;;;3.63;1.88;;;16.20;51.90;;;;;;4977607;28;20042;-92
2022/04/18 12:27:17;;;;;;;4.95;2.20;;;16.20;52.50;;;;;;4993350;28;20058;-84
2022/04/18 12:29:46;;;;;;;5.03;2.20;;;16.30;51.70;;;;;;4993499;28;20081;-84
2022/04/18 12:32:28;;;;;;;4.38;2.05;;;16.40;61.40;;;;;;4992980;28;20037;-81
2022/04/18 12:34:53;;;;;;;3.92;1.92;;;16.50;70.00;;;;;;4996211;28;20030;-84
2022/04/18 12:37:25;;;;;;;5.85;2.70;;;16.50;61.30;;;;;;4991208;28;20088;-85
2022/04/18 12:40:15;;;;;;;4.60;2.60;;;16.30;72.60;;;;;;4990725;28;20469;-83
2022/04/18 12:42:48;;;;;;;4.82;2.97;;;15.90;80.80;;;;;;4991903;28;20049;-88
2022/04/18 12:45:14;;;;;;;5.45;2.85;;;15.60;92.00;;;;;;4990711;28;20034;-82
2022/04/18 12:47:40;;;;;;;5.28;2.75;;;15.30;96.10;;;;;;4992062;28;20441;-84
2022/04/18 12:50:13;;;;;;;4.72;2.50;;;15.00;97.80;;;;;;4990813;28;20494;-88
2022/04/18 12:52:50;;;;;;;4.25;2.50;;;14.90;99.90;;;;;;4991913;28;20443;-87
2022/04/18 12:55:29;;;;;;;5.40;2.80;;;14.70;99.90;;;;;;4991315;28;20058;-89
2022/04/18 12:57:54;;;;;;;4.65;2.22;;;14.70;99.90;;;;;;4990658;28;20030;-84
2022/04/18 13:00:24;;;;;;;5.20;2.72;;;14.60;99.00;;;;;;4992658;28;20042;-89
2022/04/18 13:03:17;;;;;;;4.40;2.70;;;14.80;77.50;;;;;;4990556;28;20034;-88
2022/04/18 13:05:45;;;;;;;6.10;2.83;;;14.80;97.60;;;;;;4988757;28;20048;-86
2022/04/18 13:08:16;;;;;;;4.90;3.33;;;14.70;99.90;;;;;;5006919;28;20492;-89
2022/04/18 13:11:25;;;;;;;4.40;2.22;;;14.60;99.90;;;;;;5010922;28;20056;-90
2022/04/18 13:18:05;;;;;;;4.93;2.75;;;14.60;97.40;;;;;;5012563;28;20072;-83
2022/04/18 13:20:32;;;;;;;4.30;2.60;;;14.60;95.50;;;;;;5011095;28;20436;-82
2022/04/18 13:22:58;;;;;;;5.43;2.97;;;14.60;98.20;;;;;;5010553;28;20061;-83
2022/04/18 13:25:24;;;;;;;3.83;2.50;;;14.60;99.90;;;;;;5008747;28;20072;-81
2022/04/18 13:27:53;;;;;;;4.28;2.72;;;14.50;94.10;;;;;;5010986;28;20034;-83
2022/04/18 13:30:20;;;;;;;3.67;2.30;;;14.50;97.90;;;;;;5010820;28;20116;-83
2022/04/18 13:32:46;;;;;;;4.22;2.63;;;14.60;92.30;;;;;;4992536;28;20087;-82
2022/04/18 13:35:12;;;;;;;4.68;2.65;;;14.70;81.80;;;;;;4993158;28;20034;-83
2022/04/18 13:37:38;;;;;;;4.75;2.40;;;14.90;71.00;;;;;;5003383;28;20065;-85
2022/04/18 13:40:05;;;;;;;5.07;3.00;;;15.40;69.70;;;;;;4991730;28;20372;-83
2022/04/18 13:42:31;;;;;;;5.45;3.08;;;15.40;91.80;;;;;;4990067;28;20039;-85
2022/04/18 13:44:57;;;;;;;4.82;2.70;;;15.20;94.40;;;;;;4990779;28;20034;-82
2022/04/18 13:47:22;;;;;;;4.50;2.78;;;15.40;74.50;;;;;;4990802;28;20030;-84
2022/04/18 13:49:48;;;;;;;5.13;3.00;;;15.20;91.00;;;;;;4990884;28;20030;-82
2022/04/18 13:52:14;;;;;;;4.80;2.60;;;15.10;82.60;;;;;;4990831;28;20077;-86
2022/04/18 13:54:52;;;;;;;5.60;2.58;;;15.40;66.70;;;;;;4996846;28;20464;-89
2022/04/18 13:57:18;;;;;;;6.47;3.08;;;15.70;66.00;;;;;;5009649;28;20042;-81
2022/04/18 13:59:44;;;;;;;4.30;2.65;;;15.50;90.70;;;;;;5009602;28;20026;-87
2022/04/18 14:02:22;;;;;;;;;;;;;;;;;;;;;
2022/04/18 14:05:37;;;;;;;5.07;3.17;;;15.50;80.50;;;;;;5010839;28;20556;-88
2022/04/18 14:08:06;;;;;;;5.25;3.20;;;15.40;89.50;;;;;;4980642;28;20041;-83
2022/04/18 14:10:32;;;;;;;4.60;3.10;;;15.40;91.80;;;;;;5010397;28;20119;-83
2022/04/18 14:12:58;;;;;;;4.72;3.10;;;15.40;88.30;;;;;;4992177;28;20510;-82
2022/04/18 14:20:52;;;;;;;6.28;3.22;;;15.70;77.80;;;;;;5010583;28;20068;-82
2022/04/18 14:23:18;;;;;;;6.80;3.38;;;15.80;93.40;;;;;;5010474;28;20526;-82
2022/04/18 14:25:44;;;;;;;5.28;2.95;;;15.80;94.30;;;;;;5009089;28;20045;-83
2022/04/18 14:28:09;;;;;;;4.03;2.80;;;16.10;66.60;;;;;;5011878;28;20041;-90
2022/04/18 14:30:40;;;;;;;5.45;3.10;;;16.40;79.80;;;;;;5012077;28;20037;-90
2022/04/18 14:33:06;;;;;;;5.10;2.90;;;16.60;66.50;;;;;;5008987;23;20058;-71
2022/04/18 14:35:32;;;;;;;5.78;3.03;;;16.90;74.40;;;;;;4990737;28;20507;-71
2022/04/18 14:37:58;;;;;;;7.10;3.00;;;17.20;69.20;;;;;;4993109;28;20166;-71